Isle la Motte, VT (05463)

3:27 PM EDT on April 29, 2017 (GMT -0400)
Chazy, NY | | Change Station

Elev 167 ft 44.88 °N, 73.43 °W | Updated 6 seconds ago

Partly Cloudy
Partly Cloudy
69.9 °F
Feels Like 69.9 °F
N
7.0
Wind Variable Wind from North
Gusts 25.0 mph

Today
High -- | Low -- °F
--% Chance of Precip.
Yesterday
High -- | Low -- °F
Precip. -- in
Pressure 29.89 in
Visibility 7.0 miles
Clouds Scattered Clouds 6500 ft
Dew Point 47 °F
Humidity 44%
Rainfall 0.00 in
Snow Depth Not available.
5:45 AM 7:56 PM
Waxing Crescent, 16% visible
METAR KFSO 291915Z AUTO 29011G18KT 260V320 7SM SCT065 22/07 A2989 RMK AO2 T02180074
Pressure 29.89 in
Visibility 7.0 miles
Clouds Scattered Clouds 6500 ft
Dew Point 47 °F
Humidity 44%
Rainfall 0.00 in
Snow Depth Not available.
5:45 AM 7:56 PM
Waxing Crescent, 16% visible
METAR KFSO 291915Z AUTO 29011G18KT 260V320 7SM SCT065 22/07 A2989 RMK AO2 T02180074

Get Severe Weather Alerts

Thanks for signing up!

Be on the lookout for a verification email in your inbox.

You'll start receiving the daily forecast at 8 AM.

×

10-Day Weather Forecast

Almanac

Astronomy

Apr. 29, 2017 Rise Set
Actual Time
Civil Twilight
Nautical Twilight
Astronomical Twilight
Moon
Length of Visible Light
Length of Day
Tomorrow will be .
, % of the Moon is Illuminated

Today's Extremes

State Highs State Lows

Community

WunderPhotos

WunderBlog® & News

Nearby

Air Quality

  Air Quality AQ Index Pollutant
Not available.

Snow Depth

Station Depth Elevation

Earthquake Activity

City Distance Mag. Time & Date
Minimum magnitude displayed is 2.5.

Coastal Water Temperatures

Place Temperature

Stations

Nearby Weather Stations

Station Location Temp. Windchill Dew Point Humidity Wind Precip. Elev Updated Type
                   

Watches & Warnings

There are currently no watches in effect.